Latest Weather Observations for Bourke

IDN60801

Issued at 5:32 pm EDT Friday 27 March 2015 (issued every 30 minutes, with the page automatically refreshed every 10 minutes)

About weather observations | Map of weather stations | Latest weather observations for NSW | Other Formats
Station Details ID: 048245 Name: BOURKE AIRPORT AWS Lat: -30.04 Lon: 145.95 Height: 107.3 m
Data from the previous 72 hours. | See also: Recent months at Bourke
Date/Time
EDT
Temp
°C
App
Temp
°C
Dew
Point
Rel
Hum
%
Delta-T
°C
Wind Press
QNH
hPa
Press
MSL
hPa
Rain
since 9 am
mm
Dir
 
Spd
km/h
Gust
km/h
Spd
kts
Gust
kts
27/05:30pm 25.5 20.8 -2.1 16 12.3 SSW 13 20 7 11 1020.8 1020.2 0.0
27/05:00pm 25.1 20.4 -1.6 17 12.0 S 13 20 7 11 1021.0 1020.4 0.0
27/04:30pm 25.1 19.7 -1.6 17 12.0 SSW 17 26 9 14 1021.0 1020.4 0.0
27/04:00pm 24.9 19.5 -1.0 18 11.7 SSW 17 26 9 14 1021.3 1020.7 0.0
27/03:30pm 25.0 20.1 -0.2 19 11.6 S 15 26 8 14 1021.6 1021.0 0.0
27/03:00pm 24.1 19.5 -0.9 19 11.2 S 13 22 7 12 1022.1 1021.5 0.0
27/02:30pm 24.3 19.7 -0.8 19 11.4 S 13 22 7 12 1022.6 1022.1 0.0
27/02:00pm 23.3 19.6 -0.2 21 10.6 SSE 9 17 5 9 1023.2 1022.7 0.0
27/01:30pm 23.0 18.6 0.2 22 10.4 SSW 13 20 7 11 1023.8 1023.3 0.0
27/01:00pm 21.7 17.6 -0.3 23 9.8 SSW 11 22 6 12 1024.5 1024.0 0.0
27/12:30pm 21.4 16.6 0.0 24 9.6 SSW 15 26 8 14 1025.0 1024.5 0.0
27/12:00pm 20.8 15.6 0.1 25 9.2 S 17 24 9 13 1025.5 1025.0 0.0
27/11:30am 20.2 14.6 0.1 26 9.0 SSW 19 28 10 15 1025.9 1025.4 0.0
27/11:00am 19.8 14.0 -0.2 26 8.8 SSE 20 30 11 16 1026.1 1025.6 0.0
27/10:30am 18.8 12.9 -0.6 27 8.4 SSE 20 30 11 16 1026.1 1025.6 0.0
27/10:00am 17.9 12.2 -0.8 28 8.0 SSE 19 24 10 13 1026.1 1025.6 0.0
27/09:30am 16.8 11.1 -0.9 30 7.5 SSE 19 26 10 14 1026.0 1025.5 0.0
27/09:00am 15.4 10.8 -1.2 32 6.9 SSW 13 20 7 11 1025.8 1025.3 0.0
27/08:30am 13.6 10.2 -0.8 37 5.9 SSW 7 9 4 5 1025.4 1024.9 0.0
27/08:00am 11.5 8.1 -0.9 42 5.0 SW 7 9 4 5 1025.0 1024.5 0.0
27/07:30am 10.0 6.4 -2.0 43 4.6 SSW 7 9 4 5 1024.7 1024.2 0.0
27/07:00am 12.6 9.1 -1.7 37 5.7 S 7 9 4 5 1024.5 1024.0 0.0
27/06:30am 12.7 8.7 -2.0 36 5.8 S 9 11 5 6 1024.1 1023.6 0.0
27/06:00am 12.9 8.6 -1.4 37 5.7 S 11 13 6 7 1023.8 1023.3 0.0
27/05:30am 12.3 8.8 -1.6 38 5.5 S 7 9 4 5 1023.7 1023.2 0.0
27/05:00am 13.4 9.1 -1.7 35 6.0 S 11 13 6 7 1023.4 1022.9 0.0
27/04:30am 13.9 9.6 -1.7 34 6.3 S 11 13 6 7 1023.3 1022.8 0.0
27/04:00am 14.7 10.0 -1.8 32 6.7 S 13 15 7 8 1023.3 1022.8 0.0
27/03:30am 15.1 10.4 -1.5 32 6.8 S 13 17 7 9 1023.4 1022.9 0.0
27/03:00am 15.5 10.9 -1.1 32 6.9 S 13 17 7 9 1023.5 1023.0 0.0
27/02:30am 16.1 11.5 -1.0 31 7.2 S 13 17 7 9 1023.5 1023.0 0.0
27/02:00am 16.8 11.9 -0.4 31 7.3 S 15 19 8 10 1023.6 1023.1 0.0
27/01:30am 17.3 12.9 0.5 32 7.4 S 13 17 7 9 1023.6 1023.1 0.0
27/01:00am 17.5 12.8 1.1 33 7.3 SSW 15 17 8 9 1023.6 1023.1 0.0
27/12:30am 17.8 13.5 1.3 33 7.4 SSW 13 17 7 9 1023.5 1023.0 0.0
27/12:00am 18.3 14.0 1.3 32 7.6 SW 13 17 7 9 1023.4 1022.9 0.0
 
Date/Time
EDT
Temp
°C
App
Temp
°C
Dew
Point
Rel
Hum
%
Delta-T
°C
Wind Press
QNH
hPa
Press
MSL
hPa
Rain
since 9 am
mm
Dir
 
Spd
km/h
Gust
km/h
Spd
kts
Gust
kts
26/11:30pm 18.5 14.3 1.9 33 7.6 SW 13 17 7 9 1023.2 1022.7 0.0
26/11:00pm 18.5 14.3 1.9 33 7.5 SW 13 15 7 8 1023.1 1022.6 0.0
26/10:30pm 19.2 15.1 2.1 32 7.9 WSW 13 19 7 10 1022.9 1022.4 0.0
26/10:00pm 20.1 15.7 2.5 31 8.2 WSW 15 22 8 12 1022.7 1022.2 0.0
26/09:30pm 20.8 16.0 2.6 30 8.6 WSW 17 26 9 14 1022.4 1021.8 0.0
26/09:00pm 21.4 16.6 2.6 29 8.9 WSW 17 26 9 14 1022.0 1021.4 0.0
26/08:30pm 22.2 17.1 2.8 28 9.3 WSW 19 24 10 13 1021.6 1021.0 0.0
26/08:00pm 23.0 17.9 3.0 27 9.6 WSW 19 24 10 13 1020.8 1020.2 0.0
26/07:30pm 23.8 18.9 2.0 24 10.3 WSW 17 22 9 12 1020.5 1019.9 0.0
26/07:00pm 24.9 19.3 1.1 21 11.2 SW 20 28 11 15 1020.3 1019.7 0.0
26/06:30pm 26.0 20.5 0.6 19 11.9 WSW 19 26 10 14 1019.9 1019.3 0.0
26/06:00pm 26.6 21.4 0.4 18 12.3 SW 17 28 9 15 1019.8 1019.2 0.0
26/05:30pm 26.9 21.3 -0.2 17 12.7 WSW 19 28 10 15 1019.7 1019.1 0.0
26/05:00pm 27.2 21.3 -0.8 16 12.9 SW 20 28 11 15 1019.6 1019.0 0.0
26/04:30pm 26.7 20.9 -0.3 17 12.6 WSW 20 32 11 17 1019.7 1019.1 0.0
26/04:00pm 26.5 20.6 -0.5 17 12.5 SW 20 33 11 18 1019.8 1019.2 0.0
26/03:30pm 27.0 21.8 -0.1 17 12.7 SW 17 35 9 19 1020.1 1019.5 0.0
26/03:00pm 27.4 22.8 1.8 19 12.4 SW 15 24 8 13 1020.4 1019.8 0.0
26/02:30pm 26.1 21.5 1.4 20 11.8 SW 15 24 8 13 1020.8 1020.2 0.0
26/02:00pm 25.6 20.5 1.0 20 11.6 SSW 17 24 9 13 1021.2 1020.6 0.0
26/01:30pm 25.4 20.4 1.5 21 11.4 SW 17 32 9 17 1021.7 1021.1 0.0
26/01:00pm 24.5 20.3 1.4 22 10.9 SSW 13 32 7 17 1022.1 1021.5 0.0
26/12:30pm 24.3 19.4 1.9 23 10.7 SSW 17 28 9 15 1022.5 1021.9 0.0
26/12:00pm 24.2 19.4 2.4 24 10.4 S 17 22 9 12 1022.6 1022.1 0.0
26/11:30am 23.1 17.5 1.4 24 10.2 S 20 32 11 17 1022.7 1022.2 0.0
26/11:00am 22.5 16.9 1.5 25 9.8 S 20 35 11 19 1022.8 1022.3 0.0
26/10:30am 21.9 16.9 1.5 26 9.5 S 17 26 9 14 1022.7 1022.2 0.0
26/10:00am 21.0 15.6 1.3 27 9.0 S 19 24 10 13 1022.5 1021.9 0.0
26/09:30am 19.8 15.1 0.8 28 8.6 SSE 15 22 8 12 1022.2 1021.6 0.0
26/09:00am 18.5 13.8 0.6 30 7.9 S 15 20 8 11 1022.0 1021.4 0.0
26/08:30am 17.2 13.6 0.8 33 7.2 S 9 13 5 7 1021.5 1020.9 0.0
26/08:00am 14.5 11.4 0.4 38 6.0 SSW 6 7 3 4 1021.1 1020.5 0.0
26/07:30am 14.3 10.6 0.2 38 6.0 S 9 13 5 7 1020.7 1020.1 0.0
26/07:00am 14.9 10.8 0.0 36 6.3 S 11 15 6 8 1020.3 1019.7 0.0
26/06:30am 14.9 10.8 0.0 36 6.3 S 11 15 6 8 1020.0 1019.4 0.0
26/06:00am 15.2 11.1 -0.5 34 6.6 S 11 15 6 8 1019.6 1019.0 0.0
26/05:30am 15.6 11.5 -0.2 34 6.7 S 11 15 6 8 1019.3 1018.7 0.0
26/05:00am 15.7 11.2 -0.1 34 6.7 SSW 13 17 7 9 1019.0 1018.5 0.0
26/04:30am 15.8 11.3 -0.4 33 6.9 SSW 13 15 7 8 1019.0 1018.5 0.0
26/04:00am 16.0 11.5 -0.2 33 6.9 SSW 13 15 7 8 1018.9 1018.4 0.0
26/03:30am 16.2 11.3 -0.5 32 7.1 SSW 15 17 8 9 1018.8 1018.3 0.0
26/03:00am 16.8 11.9 -0.4 31 7.3 SSW 15 20 8 11 1018.9 1018.4 0.0
26/02:30am 16.9 12.4 -0.3 31 7.4 SSW 13 17 7 9 1019.0 1018.5 0.0
26/02:00am 16.7 12.6 -0.1 32 7.2 SSW 11 15 6 8 1019.0 1018.5 0.0
26/01:30am 16.7 13.0 -0.1 32 7.2 SW 9 13 5 7 1019.0 1018.5 0.0
26/01:00am 17.5 13.4 -0.2 30 7.6 SW 11 15 6 8 1018.7 1018.2 0.0
26/12:30am 18.5 14.1 0.2 29 8.1 SW 13 19 7 10 1018.7 1018.2 0.0
26/12:00am 19.4 14.6 0.4 28 8.4 SW 15 20 8 11 1018.6 1018.1 0.0
 
Date/Time
EDT
Temp
°C
App
Temp
°C
Dew
Point
Rel
Hum
%
Delta-T
°C
Wind Press
QNH
hPa
Press
MSL
hPa
Rain
since 9 am
mm
Dir
 
Spd
km/h
Gust
km/h
Spd
kts
Gust
kts
25/11:30pm 18.3 14.2 0.0 29 8.0 SW 11 15 6 8 1018.7 1018.2 0.0
25/11:00pm 18.6 14.6 0.2 29 8.1 SW 11 13 6 7 1018.6 1018.1 0.0
25/10:30pm 18.7 15.0 -0.2 28 8.3 SW 9 11 5 6 1018.7 1018.2 0.0
25/10:00pm 19.4 15.7 -0.1 27 8.6 SW 9 11 5 6 1018.5 1018.0 0.0
25/09:30pm 20.1 16.0 0.0 26 8.9 WSW 11 13 6 7 1018.2 1017.7 0.0
25/09:00pm 20.6 16.4 -0.7 24 9.4 SW 11 13 6 7 1017.9 1017.4 0.0
25/08:30pm 21.6 17.8 -0.4 23 9.8 SW 9 13 5 7 1017.6 1017.1 0.0
25/08:00pm 22.7 18.1 -0.7 21 10.5 SW 13 19 7 10 1017.1 1016.6 0.0
25/07:30pm 23.7 18.9 0.1 21 10.8 SW 15 20 8 11 1016.7 1016.2 0.0
25/07:00pm 25.0 20.1 -0.2 19 11.6 SW 15 22 8 12 1016.3 1015.8 0.0
25/06:30pm 25.7 19.9 -0.4 18 12.0 SW 20 28 11 15 1016.0 1015.5 0.0
25/06:00pm 26.6 20.9 -0.4 17 12.5 WSW 19 26 10 14 1015.8 1015.3 0.0
25/05:30pm 26.7 21.5 0.4 18 12.4 SW 17 28 9 15 1015.6 1015.1 0.0
25/05:00pm 27.3 22.1 0.1 17 12.8 WSW 17 28 9 15 1015.5 1015.0 0.0
25/04:30pm 26.6 21.4 0.4 18 12.4 WSW 17 26 9 14 1015.6 1015.1 0.0
25/04:00pm 26.6 21.4 0.4 18 12.3 WSW 17 26 9 14 1015.9 1015.4 0.0
25/03:30pm 26.5 21.8 1.0 19 12.1 WSW 15 32 8 17 1016.0 1015.5 0.0
25/03:00pm 26.5 21.6 1.7 20 11.9 SW 17 26 9 14 1016.2 1015.7 0.0
25/02:30pm 25.7 21.1 1.8 21 11.5 SW 15 24 8 13 1016.6 1016.1 0.0
25/02:00pm 24.8 20.4 0.3 20 11.4 SSW 13 22 7 12 1017.0 1016.5 0.0
25/01:30pm 25.4 21.3 2.2 22 11.2 S 13 26 7 14 1017.3 1016.8 0.0
25/01:00pm 23.8 19.2 1.4 23 10.5 SW 15 24 8 13 1017.8 1017.3 0.0
25/12:30pm 23.6 19.1 2.4 25 10.1 SW 15 24 8 13 1018.1 1017.6 0.0
25/12:00pm 22.9 18.2 2.9 27 9.6 SSW 17 24 9 13 1018.4 1017.9 0.0
25/11:30am 22.4 18.7 2.5 27 9.5 S 11 19 6 10 1018.6 1018.1 0.0
25/11:00am 21.6 17.4 1.8 27 9.2 SSE 13 17 7 9 1018.9 1018.4 0.0
25/10:30am 21.1 16.7 2.9 30 8.6 SSE 15 22 8 12 1018.9 1018.4 0.0
25/10:00am 19.7 14.9 2.6 32 8.0 SSE 17 20 9 11 1018.8 1018.3 0.0
25/09:30am 19.0 14.2 2.4 33 7.7 SSE 17 22 9 12 1018.6 1018.1 0.0
25/09:00am 18.0 13.6 2.7 36 7.0 SSE 15 20 8 11 1018.4 1017.9 0.0
25/08:30am 17.1 13.2 3.4 40 6.4 S 13 19 7 10 1018.2 1017.7 0.0
25/08:00am 15.3 12.8 4.7 49 5.0 S 7 11 4 6 1018.0 1017.5 0.0
25/07:30am 13.3 10.5 3.1 50 4.6 SSW 7 9 4 5 1017.6 1017.1 0.0
25/07:00am 14.7 11.6 3.5 47 5.1 S 9 9 5 5 1017.3 1016.8 0.0
25/06:30am 15.4 12.3 3.5 45 5.5 S 9 13 5 7 1017.0 1016.5 0.0
25/06:00am 15.9 12.4 3.7 44 5.6 S 11 13 6 7 1016.6 1016.1 0.0
25/05:30am 16.2 12.7 3.6 43 5.8 S 11 13 6 7 1016.2 1015.7 0.0
25/05:00am 16.9 13.0 3.6 41 6.2 SSE 13 17 7 9 1015.9 1015.4 0.0
25/04:30am 17.3 13.8 3.6 40 6.4 SSE 11 15 6 8 1015.9 1015.4 0.0
25/04:00am 18.1 13.5 3.6 38 6.8 S 17 20 9 11 1015.7 1015.2 0.0
25/03:30am 18.4 14.2 3.8 38 6.9 S 15 20 8 11 1015.8 1015.3 0.0
25/03:00am 18.6 14.7 3.6 37 7.1 S 13 19 7 10 1015.9 1015.4 0.0
25/02:30am 19.4 14.8 3.6 35 7.5 S 17 26 9 14 1016.0 1015.5 0.0
25/02:00am 19.9 15.7 3.6 34 7.8 S 15 20 8 11 1016.0 1015.5 0.0
25/01:30am 20.5 15.9 3.7 33 8.1 S 17 22 9 12 1015.9 1015.4 0.0
25/01:00am 21.2 16.7 4.3 33 8.2 S 17 24 9 13 1015.7 1015.2 0.0
25/12:30am 22.1 17.3 5.5 34 8.3 S 20 26 11 14 1015.7 1015.2 0.0
25/12:00am 22.7 18.4 7.7 38 7.9 S 20 30 11 16 1015.6 1015.1 0.0
 
Date/Time
EDT
Temp
°C
App
Temp
°C
Dew
Point
Rel
Hum
%
Delta-T
°C
Wind Press
QNH
hPa
Press
MSL
hPa
Rain
since 9 am
mm
Dir
 
Spd
km/h
Gust
km/h
Spd
kts
Gust
kts
24/11:30pm 22.6 20.1 8.0 39 7.7 S 11 13 6 7 1015.5 1015.0 0.0
24/11:00pm 23.0 20.8 7.9 38 8.0 S 9 13 5 7 1015.5 1015.0 0.0
24/10:30pm 24.3 20.2 7.9 35 8.7 S 19 28 10 15 1015.3 1014.8 0.0
24/10:00pm 24.9 21.2 8.0 34 9.0 S 17 22 9 12 1015.0 1014.5 0.0
24/09:30pm 25.6 22.1 8.6 34 9.2 SSW 17 22 9 12 1014.7 1014.2 0.0
24/09:00pm 26.2 22.7 8.7 33 9.5 SW 17 24 9 13 1014.2 1013.6 0.0
24/08:30pm 27.0 22.8 8.4 31 10.1 SW 20 28 11 15 1013.5 1012.9 0.0
24/08:00pm 27.7 23.6 8.6 30 10.5 SW 20 33 11 18 1012.9 1012.3 0.0
24/07:30pm 28.7 24.7 8.9 29 11.0 WSW 20 30 11 16 1012.3 1011.7 0.0
24/07:00pm 29.8 25.0 8.8 27 11.7 WSW 24 32 13 17 1011.8 1011.2 0.0
24/06:30pm 30.8 26.1 7.9 24 12.6 WSW 22 33 12 18 1011.4 1010.8 0.0
24/06:00pm 31.4 26.2 7.1 22 13.3 WSW 24 39 13 21 1010.9 1010.3 0.0

Other Formats:

Comma delimited format used in spreadsheet applications
http://www.bom.gov.au/fwo/IDN60801/IDN60801.94703.axf

JavaScript Object Notation format (JSON) in row-major order
http://www.bom.gov.au/fwo/IDN60801/IDN60801.94703.json